Terminal Aerodrome Forecast
Issued by NWS

Home | Current Version | Previous Version | Text Only | Print | Product List | Glossary On
Versions: 1 2 3 4 5 6 7 8 9 10 11 12 13
000
FTUS45 KRIW 011125
TAFJAC
TAF
KJAC 011125Z 0112/0212 35006KT P6SM SKC
     FM011500 VRB04KT P6SM SKC
     FM011900 20012G20KT P6SM SCT080
     FM012230 20012G20KT P6SM VCTS SCT080CB BKN120
     FM020100 20010KT P6SM SCT100
      AMD LTD TO CLD VIS AND WIND=

USA.gov is the U.S. government's official web portal to all federal, state and local government web resources and services.